Time;durP1;ratioP1;P1;durP2;ratioP2;P2;SDS_P1;SDS_P2;PMS_P1;PMS_P2;Temp;Humidity;BMP_temperature;BMP_pressure;BME280_temperature;BME280_humidity;BME280_pressure;Samples;Min_cycle;Max_cycle;Signal;HPM_P1;HPM_P2
2021/03/27 00:01:33;;;;;;;78.85;49.53;;;;;;;7.40;82.59;100654.91;5025388;28;20123;-74
2021/03/27 00:04:20;;;;;;;76.78;47.55;;;;;;;7.38;82.95;100652.34;5039770;28;20053;-75
2021/03/27 00:06:56;;;;;;;77.25;47.08;;;;;;;7.40;82.74;100652.28;5013875;28;20164;-75
2021/03/27 00:09:53;;;;;;;79.13;48.55;;;;;;;7.36;82.20;100641.94;5022643;28;20057;-75
2021/03/27 00:12:36;;;;;;;82.72;48.05;;;;;;;7.29;82.96;100634.41;5045363;28;20470;-76
2021/03/27 00:15:22;;;;;;;76.15;49.67;;;;;;;7.29;82.76;100629.19;5007209;28;20055;-75
2021/03/27 00:17:56;;;;;;;78.68;49.10;;;;;;;7.28;82.56;100633.56;5049818;28;20079;-76
2021/03/27 00:20:35;;;;;;;83.82;48.70;;;;;;;7.30;82.02;100623.06;5005576;28;20041;-77
2021/03/27 00:23:24;;;;;;;77.72;46.88;;;;;;;7.28;82.64;100627.50;5029732;28;20053;-76
2021/03/27 00:26:02;;;;;;;85.13;49.20;;;;;;;7.21;82.51;100616.47;5031772;28;20059;-76
2021/03/27 00:28:40;;;;;;;73.93;46.85;;;;;;;7.30;82.34;100616.03;5010014;28;20132;-75
2021/03/27 00:31:14;;;;;;;72.72;46.08;;;;;;;7.26;82.15;100609.25;5032979;28;20051;-75
2021/03/27 00:33:44;;;;;;;80.25;47.42;;;;;;;7.18;82.58;100611.34;5021200;28;20530;-75
2021/03/27 00:36:15;;;;;;;76.45;45.63;;;;;;;7.15;82.87;100606.25;5031568;28;20434;-76
2021/03/27 00:38:50;;;;;;;71.13;45.20;;;;;;;7.15;82.78;100605.41;5006500;28;20132;-75
2021/03/27 00:41:22;;;;;;;81.13;45.40;;;;;;;7.16;82.80;100607.97;5027937;28;20415;-76
2021/03/27 00:43:55;;;;;;;76.82;48.75;;;;;;;7.29;82.65;100609.09;5027735;28;20068;-75
2021/03/27 00:46:23;;;;;;;67.70;44.63;;;;;;;7.27;81.65;100605.69;5027227;28;20057;-74
2021/03/27 00:48:59;;;;;;;74.82;47.28;;;;;;;7.22;82.49;100606.84;5028759;28;20037;-75
2021/03/27 00:51:38;;;;;;;77.78;47.38;;;;;;;7.12;82.75;100598.56;5022056;28;20057;-74
2021/03/27 00:54:10;;;;;;;71.50;44.47;;;;;;;7.18;82.74;100587.78;5029361;28;20061;-76
2021/03/27 00:56:44;;;;;;;73.00;45.17;;;;;;;7.24;81.90;100591.88;5045533;28;20071;-75
2021/03/27 00:59:21;;;;;;;70.97;44.80;;;;;;;7.28;81.87;100582.97;5029479;28;20374;-76
2021/03/27 01:01:51;;;;;;;70.65;45.63;;;;;;;7.31;81.71;100582.84;5026093;28;20432;-75
2021/03/27 01:04:20;;;;;;;67.53;43.80;;;;;;;7.48;80.80;100580.31;5031384;28;20045;-75
2021/03/27 01:06:50;;;;;;;65.75;43.83;;;;;;;7.53;80.58;100575.69;5039147;28;20057;-76
2021/03/27 01:09:24;;;;;;;68.10;43.45;;;;;;;7.58;79.95;100576.31;5058182;28;20049;-75
2021/03/27 01:12:03;;;;;;;71.55;44.85;;;;;;;7.64;79.98;100569.94;5011086;28;20128;-76
2021/03/27 01:14:35;;;;;;;68.38;43.38;;;;;;;7.63;80.22;100564.78;5019715;28;20491;-74
2021/03/27 01:17:02;;;;;;;66.25;42.70;;;;;;;7.63;79.76;100568.25;5028379;28;20105;-75
2021/03/27 01:19:51;;;;;;;68.05;43.72;;;;;;;7.49;79.91;100557.56;5013732;28;20068;-76
2021/03/27 01:22:19;;;;;;;76.47;42.63;;;;;;;7.49;80.01;100557.56;5019658;28;20057;-75
2021/03/27 01:24:47;;;;;;;66.70;42.80;;;;;;;7.47;80.13;100548.91;5015969;28;20412;-76
2021/03/27 01:27:13;;;;;;;60.63;40.88;;;;;;;7.43;80.53;100548.25;5025938;28;20049;-76
2021/03/27 01:30:07;;;;;;;66.25;42.63;;;;;;;7.34;80.79;100543.44;5026906;28;20057;-74
2021/03/27 01:32:53;;;;;;;66.13;41.30;;;;;;;7.33;80.85;100539.09;5016527;28;20391;-74
2021/03/27 01:35:29;;;;;;;;;;;;;;;7.31;80.57;100530.47;5025939;28;20413;-76
2021/03/27 01:38:10;;;;;;;67.90;41.88;;;;;;;7.29;80.64;100530.53;5026773;28;20011;-75
2021/03/27 01:40:44;;;;;;;71.10;43.28;;;;;;;7.20;81.45;100524.88;5030797;28;20155;-77
2021/03/27 01:43:38;;;;;;;70.53;41.92;;;;;;;7.14;81.29;100526.00;5012269;28;20067;-75
2021/03/27 01:46:48;;;;;;;72.28;40.92;;;;;;;7.24;80.57;100515.97;5025610;28;20045;-73
2021/03/27 01:49:38;;;;;;;65.20;40.33;;;;;;;7.12;81.49;100517.41;5024617;28;20052;-75
2021/03/27 01:52:14;;;;;;;61.63;39.55;;;;;;;7.11;81.46;100507.81;5009607;28;20482;-76
2021/03/27 01:55:09;;;;;;;63.30;39.92;;;;;;;7.09;81.25;100502.66;5012039;28;20121;-75
2021/03/27 01:58:03;;;;;;;64.68;40.33;;;;;;;7.04;81.81;100502.03;5022546;28;20099;-74
2021/03/27 02:00:36;;;;;;;67.35;41.72;;;;;;;6.96;81.71;100505.94;5025884;28;20128;-74
2021/03/27 02:03:22;;;;;;;64.35;39.63;;;;;;;6.92;81.73;100496.50;5009116;28;20041;-75
2021/03/27 02:06:09;;;;;;;65.18;39.90;;;;;;;6.91;81.53;100489.59;5020490;28;20060;-76
2021/03/27 02:08:36;;;;;;;68.63;41.63;;;;;;;6.84;82.58;100487.25;5012539;28;20045;-73
2021/03/27 02:11:10;;;;;;;70.22;40.63;;;;;;;6.77;82.68;100483.22;5043400;28;20099;-75
2021/03/27 02:13:39;;;;;;;62.25;39.78;;;;;;;6.74;82.74;100478.13;5029258;28;20049;-77
2021/03/27 02:16:14;;;;;;;62.35;39.17;;;;;;;6.72;82.84;100481.72;5030256;28;20599;-74
2021/03/27 02:19:15;;;;;;;66.28;40.55;;;;;;;6.60;83.60;100478.75;5018881;28;20059;-75
2021/03/27 02:22:06;;;;;;;64.40;36.25;;;;;;;6.58;83.58;100483.19;5046021;28;20641;-76
2021/03/27 02:24:58;;;;;;;60.00;39.22;;;;;;;6.59;83.55;100476.19;4987642;28;20041;-77
2021/03/27 02:27:25;;;;;;;65.93;40.80;;;;;;;6.54;83.66;100479.03;5024878;28;20045;-75
2021/03/27 02:30:12;;;;;;;65.50;40.65;;;;;;;6.57;83.65;100484.13;5021634;28;20052;-75
2021/03/27 02:33:02;;;;;;;63.25;37.88;;;;;;;6.52;83.60;100485.22;5023652;28;20143;-75
2021/03/27 02:35:42;;;;;;;61.33;38.28;;;;;;;6.44;84.37;100475.13;5018561;28;20072;-76
2021/03/27 02:38:26;;;;;;;58.65;37.88;;;;;;;6.50;84.23;100479.22;5017646;28;20164;-76
2021/03/27 02:41:24;;;;;;;64.63;38.85;;;;;;;6.49;84.11;100477.53;5022443;28;20132;-78
2021/03/27 02:48:03;;;;;;;60.03;36.60;;;;;;;6.62;83.25;100473.47;5050636;28;20044;-77
2021/03/27 02:50:49;;;;;;;57.92;35.67;;;;;;;6.67;82.60;100471.47;5048942;28;20526;-74
2021/03/27 02:53:19;;;;;;;65.97;36.33;;;;;;;6.61;83.05;100474.34;5012540;28;20053;-74
2021/03/27 02:56:18;;;;;;;55.65;35.42;;;;;;;6.59;83.47;100463.97;5032437;28;20128;-74
2021/03/27 02:59:15;;;;;;;56.83;35.63;;;;;;;6.69;82.56;100474.00;4983773;28;20701;-74
2021/03/27 03:01:54;;;;;;;57.13;35.45;;;;;;;6.89;81.80;100468.72;5006546;28;20063;-74
2021/03/27 03:04:38;;;;;;;61.60;34.95;;;;;;;7.01;81.24;100472.53;5020553;28;20483;-76
2021/03/27 03:07:47;;;;;;;49.53;32.03;;;;;;;7.02;80.91;100464.59;5026077;28;20064;-75
2021/03/27 03:10:28;;;;;;;55.15;33.42;;;;;;;6.98;81.31;100465.69;5049121;28;20052;-75
2021/03/27 03:13:16;;;;;;;52.47;32.83;;;;;;;7.01;80.90;100462.91;5008155;28;20507;-75
2021/03/27 03:15:54;;;;;;;52.55;33.33;;;;;;;7.08;80.49;100461.72;5050082;28;20041;-74
2021/03/27 03:18:32;;;;;;;54.08;33.08;;;;;;;7.12;79.78;100454.56;5048396;28;20037;-73
2021/03/27 03:21:17;;;;;;;51.95;32.97;;;;;;;7.10;79.93;100452.00;5012233;28;20045;-73
2021/03/27 03:23:56;;;;;;;50.55;32.45;;;;;;;7.09;80.29;100445.09;5018783;28;20136;-75
2021/03/27 03:26:36;;;;;;;54.28;32.63;;;;;;;7.07;80.51;100448.72;4988617;28;20060;-73
2021/03/27 03:29:18;;;;;;;53.90;32.92;;;;;;;7.27;79.62;100445.97;5001580;28;20044;-75
2021/03/27 03:31:58;;;;;;;52.60;31.08;;;;;;;7.28;79.55;100452.06;5023413;28;20956;-75
2021/03/27 03:35:01;;;;;;;49.28;31.48;;;;;;;7.41;78.55;100453.16;5031944;28;20574;-75
2021/03/27 03:37:43;;;;;;;54.45;31.35;;;;;;;7.35;79.17;100449.06;5022297;28;20713;-74
2021/03/27 03:40:19;;;;;;;49.42;32.00;;;;;;;7.37;78.60;100438.53;5044761;28;20511;-74
2021/03/27 03:43:18;;;;;;;50.80;32.45;;;;;;;7.44;78.49;100436.47;5029376;28;20638;-75
2021/03/27 03:46:08;;;;;;;51.78;31.85;;;;;;;7.44;78.30;100433.84;5033738;28;20563;-76
2021/03/27 03:48:46;;;;;;;48.40;29.80;;;;;;;7.56;77.72;100431.44;5052045;28;20045;-76
2021/03/27 03:51:29;;;;;;;50.33;29.65;;;;;;;7.52;77.89;100432.53;5026197;28;20084;-76
2021/03/27 03:54:23;;;;;;;50.67;30.67;;;;;;;7.55;77.28;100424.50;5036420;28;20084;-74
2021/03/27 03:57:21;;;;;;;50.42;30.70;;;;;;;7.59;77.10;100433.91;5013108;28;20380;-75
2021/03/27 03:59:48;;;;;;;48.85;30.73;;;;;;;7.63;76.90;100429.38;5027630;28;20048;-75
2021/03/27 04:02:33;;;;;;;46.70;29.17;;;;;;;7.71;76.28;100424.63;5033069;28;20053;-75
2021/03/27 04:05:12;;;;;;;55.80;30.67;;;;;;;7.61;77.47;100426.84;5049773;28;20325;-74
2021/03/27 04:08:17;;;;;;;50.67;30.42;;;;;;;7.65;77.17;100419.66;5046376;28;20507;-76
2021/03/27 04:10:46;;;;;;;47.55;30.42;;;;;;;7.68;76.61;100405.56;5051856;28;20049;-75
2021/03/27 04:13:38;;;;;;;49.50;30.70;;;;;;;7.79;76.56;100411.09;5019865;28;20568;-75
2021/03/27 04:16:10;;;;;;;48.03;29.88;;;;;;;7.74;76.67;100406.09;5047917;28;20053;-74
2021/03/27 04:19:00;;;;;;;49.22;29.77;;;;;;;7.82;76.31;100403.09;5013615;28;20041;-74
2021/03/27 04:21:31;;;;;;;43.38;28.15;;;;;;;7.76;75.83;100408.66;5006098;28;20049;-73
2021/03/27 04:23:59;;;;;;;44.85;29.35;;;;;;;7.71;76.20;100405.44;5002048;28;20044;-77
2021/03/27 04:26:35;;;;;;;45.80;29.08;;;;;;;7.77;76.05;100415.59;5039685;28;20763;-76
2021/03/27 04:29:32;;;;;;;49.20;28.20;;;;;;;7.70;76.39;100411.56;5037252;28;20143;-73
2021/03/27 04:32:20;;;;;;;45.72;29.33;;;;;;;7.53;77.54;100430.78;5022079;28;20064;-77
2021/03/27 04:35:11;;;;;;;48.65;28.75;;;;;;;7.50;78.13;100437.00;5020579;28;20128;-75
2021/03/27 04:38:07;;;;;;;42.97;28.88;;;;;;;7.42;78.32;100441.75;5027155;28;20060;-75
2021/03/27 04:40:51;;;;;;;49.67;32.60;;;;;;;7.31;78.49;100428.34;5025257;28;20488;-74
2021/03/27 04:43:25;;;;;;;51.65;28.85;;;;;;;7.27;78.67;100434.66;5024186;28;20048;-73
2021/03/27 04:46:29;;;;;;;48.95;29.88;;;;;;;7.30;78.55;100431.91;5000503;28;20049;-73
2021/03/27 04:49:13;;;;;;;44.03;26.92;;;;;;;7.36;78.26;100436.81;5046391;28;20061;-74
2021/03/27 04:51:46;;;;;;;46.88;28.85;;;;;;;7.43;77.88;100429.50;5008704;28;20167;-72
2021/03/27 04:54:19;;;;;;;51.08;29.30;;;;;;;7.17;78.43;100433.41;5025390;28;20264;-72
2021/03/27 04:57:20;;;;;;;45.90;27.75;;;;;;;6.96;79.70;100427.41;5049669;28;20072;-74
2021/03/27 04:59:59;;;;;;;44.50;28.20;;;;;;;6.80;80.64;100428.13;5049141;28;20068;-73
2021/03/27 05:03:01;;;;;;;47.50;28.40;;;;;;;6.63;81.30;100424.59;5050248;28;20064;-73
2021/03/27 05:06:07;;;;;;;45.40;28.45;;;;;;;6.55;81.70;100420.56;5014498;28;20065;-74
2021/03/27 05:09:07;;;;;;;47.90;28.60;;;;;;;6.49;82.13;100425.22;5005191;28;20041;-74
2021/03/27 05:11:42;;;;;;;48.38;27.70;;;;;;;6.50;82.10;100424.31;5015569;28;20052;-72
2021/03/27 05:14:34;;;;;;;43.55;27.48;;;;;;;6.79;81.50;100417.72;5023877;28;20059;-74
2021/03/27 05:17:25;;;;;;;42.00;27.25;;;;;;;7.25;79.09;100416.41;5040098;28;20052;-73
2021/03/27 05:20:09;;;;;;;42.30;27.77;;;;;;;7.19;79.10;100410.59;5027559;28;20052;-73
2021/03/27 05:22:43;;;;;;;47.33;26.05;;;;;;;7.25;79.20;100411.19;4996649;28;20069;-73
2021/03/27 05:25:21;;;;;;;41.73;24.13;;;;;;;7.49;78.35;100406.50;5009674;28;20322;-74
2021/03/27 05:28:05;;;;;;;39.40;24.17;;;;;;;7.81;76.74;100402.25;5007817;28;20048;-73
2021/03/27 05:30:44;;;;;;;42.60;24.05;;;;;;;7.85;76.67;100401.19;5008054;28;20072;-73
2021/03/27 05:33:29;;;;;;;36.95;22.92;;;;;;;8.24;74.34;100404.41;5030711;28;20506;-73
2021/03/27 05:36:36;;;;;;;38.50;23.45;;;;;;;8.59;73.69;100413.91;5019238;28;20052;-73
2021/03/27 05:39:33;;;;;;;35.67;23.65;;;;;;;9.02;71.64;100408.09;4949405;28;20128;-74
2021/03/27 05:42:31;;;;;;;36.30;21.60;;;;;;;9.08;71.03;100405.09;5050880;28;20052;-72
2021/03/27 05:45:36;;;;;;;35.80;21.98;;;;;;;9.44;69.47;100398.69;5023360;28;20048;-74
2021/03/27 05:48:30;;;;;;;32.47;21.27;;;;;;;9.34;69.32;100398.38;5024268;28;20410;-73
2021/03/27 05:51:14;;;;;;;34.90;21.33;;;;;;;9.12;69.96;100410.09;5045535;28;20551;-74
2021/03/27 05:54:09;;;;;;;37.33;20.55;;;;;;;9.10;70.45;100413.78;5002703;28;20326;-71
2021/03/27 05:57:09;;;;;;;36.05;23.00;;;;;;;9.25;70.08;100401.53;5018270;28;20547;-73
2021/03/27 05:59:48;;;;;;;40.40;22.08;;;;;;;9.36;69.52;100401.75;5024681;28;20048;-72
2021/03/27 06:02:39;;;;;;;33.50;20.45;;;;;;;9.47;69.28;100401.16;5013230;28;20041;-72
2021/03/27 06:05:29;;;;;;;36.30;21.40;;;;;;;9.50;68.89;100391.31;5038912;28;20051;-72
2021/03/27 06:08:06;;;;;;;27.83;19.55;;;;;;;9.71;68.16;100383.94;5047034;28;20148;-73
2021/03/27 06:10:44;;;;;;;34.80;21.80;;;;;;;9.90;67.26;100383.69;5025350;28;20149;-74
2021/03/27 06:13:43;;;;;;;30.73;19.88;;;;;;;9.91;67.02;100388.03;5032346;28;20036;-74
2021/03/27 06:16:31;;;;;;;34.20;19.98;;;;;;;10.33;66.30;100386.38;5020537;28;20071;-73
2021/03/27 06:19:43;;;;;;;30.20;20.13;;;;;;;10.87;63.78;100378.59;5023271;28;20527;-73
2021/03/27 06:22:29;;;;;;;32.53;19.13;;;;;;;11.25;63.01;100367.34;5003250;28;20046;-73
2021/03/27 06:25:17;;;;;;;26.30;18.25;;;;;;;12.77;57.91;100370.97;5019017;28;20057;-72
2021/03/27 06:28:09;;;;;;;26.60;17.95;;;;;;;13.86;54.79;100369.03;5040525;28;20045;-73
2021/03/27 06:30:58;;;;;;;28.15;16.17;;;;;;;13.97;52.75;100368.22;5017288;28;20474;-74
2021/03/27 06:33:43;;;;;;;24.50;16.88;;;;;;;14.23;52.41;100367.03;5021027;28;20132;-73
2021/03/27 06:36:12;;;;;;;27.30;18.17;;;;;;;15.00;50.51;100363.59;5030487;28;20068;-73
2021/03/27 06:38:45;;;;;;;25.15;17.75;;;;;;;15.41;48.60;100363.66;5042151;28;20053;-73
2021/03/27 06:41:38;;;;;;;26.73;18.30;;;;;;;15.79;47.40;100372.06;5024191;28;20396;-73
2021/03/27 06:44:27;;;;;;;30.13;16.60;;;;;;;16.81;44.80;100368.50;5041088;28;20136;-73
2021/03/27 06:47:09;;;;;;;29.02;17.88;;;;;;;17.35;43.98;100366.31;5019787;28;20040;-73
2021/03/27 06:49:57;;;;;;;30.17;16.50;;;;;;;18.75;40.29;100349.53;5042237;28;20068;-74
2021/03/27 06:52:51;;;;;;;21.15;15.27;;;;;;;19.53;37.99;100349.75;5038737;28;20055;-72
2021/03/27 06:55:40;;;;;;;25.70;16.42;;;;;;;17.75;41.45;100341.38;5035526;28;20045;-72
2021/03/27 06:58:19;;;;;;;30.75;15.65;;;;;;;17.06;43.16;100339.69;5015162;28;20163;-73
2021/03/27 07:01:17;;;;;;;20.38;15.38;;;;;;;16.24;44.78;100343.38;5022649;28;20045;-73
2021/03/27 07:04:20;;;;;;;25.65;15.52;;;;;;;14.85;48.68;100341.81;5029639;28;20060;-72
2021/03/27 07:07:21;;;;;;;25.05;15.82;;;;;;;13.55;51.70;100350.19;4974915;28;20492;-72
2021/03/27 07:10:24;;;;;;;22.40;15.63;;;;;;;13.25;53.63;100363.94;5026142;28;20084;-73
2021/03/27 07:13:12;;;;;;;21.67;14.98;;;;;;;12.80;55.38;100374.22;5006688;28;20060;-73
2021/03/27 07:15:48;;;;;;;22.42;16.20;;;;;;;12.38;56.23;100381.63;5047245;28;20262;-73
2021/03/27 07:18:53;;;;;;;24.05;14.77;;;;;;;12.30;56.82;100402.44;5014672;28;20132;-72
2021/03/27 07:21:42;;;;;;;25.75;15.30;;;;;;;11.45;61.70;100431.94;5022001;28;20049;-73
2021/03/27 07:24:27;;;;;;;29.20;15.82;;;;;;;11.01;64.61;100449.66;5045370;28;20057;-74
2021/03/27 07:27:27;;;;;;;26.47;17.60;;;;;;;10.24;69.58;100457.94;5037302;28;20140;-73
2021/03/27 07:30:45;;;;;;;30.38;16.88;;;;;;;9.77;74.75;100453.69;5032150;28;20057;-73
2021/03/27 07:33:27;;;;;;;30.05;17.70;;;;;;;9.08;80.75;100465.50;4984622;28;20059;-73
2021/03/27 07:36:13;;;;;;;23.35;16.63;;;;;;;9.01;84.44;100453.66;5011031;28;20056;-74
2021/03/27 07:39:02;;;;;;;26.52;17.10;;;;;;;9.00;84.77;100454.56;5008407;28;20089;-74
2021/03/27 07:42:04;;;;;;;22.42;17.08;;;;;;;8.98;86.51;100453.81;5008922;28;20041;-73
2021/03/27 07:44:58;;;;;;;29.55;16.85;;;;;;;8.65;88.70;100440.78;4995905;28;20423;-74
2021/03/27 07:47:57;;;;;;;30.30;16.27;;;;;;;8.62;90.22;100433.91;5046702;28;20055;-74
2021/03/27 07:50:51;;;;;;;23.85;15.82;;;;;;;8.63;91.86;100430.34;5021282;28;20045;-74
2021/03/27 07:53:51;;;;;;;24.30;15.35;;;;;;;8.73;91.40;100441.19;5023335;28;20282;-74
2021/03/27 07:56:43;;;;;;;24.58;14.52;;;;;;;8.74;91.60;100453.41;5023076;28;20534;-74
2021/03/27 07:59:25;;;;;;;24.73;14.13;;;;;;;8.73;91.73;100477.91;5034845;28;20144;-74
2021/03/27 08:02:06;;;;;;;23.08;14.23;;;;;;;8.65;92.41;100480.13;5019753;28;20099;-72
2021/03/27 08:05:02;;;;;;;27.10;15.88;;;;;;;8.73;92.91;100505.00;5022588;28;20049;-73
2021/03/27 08:07:42;;;;;;;21.47;14.20;;;;;;;8.70;92.27;100523.56;5035219;28;20056;-74
2021/03/27 08:10:46;;;;;;;24.85;15.13;;;;;;;8.57;92.83;100540.88;5013546;28;20091;-73
2021/03/27 08:13:28;;;;;;;27.58;16.08;;;;;;;8.22;93.53;100543.50;5046879;28;20251;-72
2021/03/27 08:16:13;;;;;;;22.85;14.25;;;;;;;8.17;94.10;100555.16;5024824;28;20152;-73
2021/03/27 08:19:10;;;;;;;13.75;6.18;;;;;;;8.03;89.88;100547.97;5050099;28;20045;-72
2021/03/27 08:21:58;;;;;;;8.43;3.90;;;;;;;7.89;87.55;100566.16;5023439;28;20045;-74
2021/03/27 08:24:38;;;;;;;5.32;3.42;;;;;;;7.51;87.23;100595.84;5048725;28;20061;-73
2021/03/27 08:27:16;;;;;;;3.30;1.80;;;;;;;7.19;86.90;100601.72;4996010;28;20139;-73
2021/03/27 08:29:58;;;;;;;2.88;1.90;;;;;;;7.28;87.11;100612.63;5024504;28;20041;-73
2021/03/27 08:32:47;;;;;;;4.65;1.77;;;;;;;7.21;87.19;100620.84;5047348;28;20049;-73
2021/03/27 08:35:19;;;;;;;3.75;2.10;;;;;;;7.08;87.00;100629.25;5038514;28;20045;-72
2021/03/27 08:38:03;;;;;;;2.10;1.20;;;;;;;7.00;87.41;100647.06;5045763;28;20140;-72
2021/03/27 08:40:47;;;;;;;7.25;2.83;;;;;;;7.03;87.99;100667.88;5023234;28;20045;-74
2021/03/27 08:43:18;;;;;;;10.77;1.60;;;;;;;6.87;88.04;100684.28;5007083;28;20177;-73
2021/03/27 08:46:27;;;;;;;8.57;1.20;;;;;;;6.65;88.94;100700.88;5031522;28;20056;-74
2021/03/27 08:49:31;;;;;;;12.27;1.92;;;;;;;6.80;90.20;100713.34;5018405;28;20331;-72
2021/03/27 08:52:13;;;;;;;5.57;1.10;;;;;;;6.25;91.77;100718.19;5023972;28;20060;-72
2021/03/27 08:55:10;;;;;;;5.65;1.27;;;;;;;6.19;91.72;100748.94;5017904;28;20064;-72
2021/03/27 08:57:55;;;;;;;;;;;;;;;5.79;93.29;100740.81;4985781;28;20041;-73
2021/03/27 09:00:24;;;;;;;4.28;1.42;;;;;;;5.73;93.12;100748.91;5024544;28;19956;-73
2021/03/27 09:03:13;;;;;;;2.25;1.42;;;;;;;5.73;94.14;100753.28;5048391;28;20049;-73
2021/03/27 09:05:45;;;;;;;4.75;1.40;;;;;;;5.79;93.79;100756.50;5026650;28;20124;-72
2021/03/27 09:08:27;;;;;;;4.45;1.23;;;;;;;5.84;93.59;100774.63;5047675;28;20057;-73
2021/03/27 09:11:15;;;;;;;4.32;1.20;;;;;;;5.68;92.49;100770.88;5024722;28;20128;-73
2021/03/27 09:14:20;;;;;;;4.32;1.80;;;;;;;5.66;93.01;100781.34;5023638;28;20060;-75
2021/03/27 09:17:04;;;;;;;1.90;1.48;;;;;;;5.70;91.71;100782.97;5022272;28;20112;-73
2021/03/27 09:19:54;;;;;;;2.88;1.58;;;;;;;5.77;92.92;100801.88;5023623;28;20038;-73
2021/03/27 09:22:39;;;;;;;2.88;1.75;;;;;;;5.88;92.33;100801.47;5037863;28;20133;-73
2021/03/27 09:25:13;;;;;;;4.20;1.98;;;;;;;5.88;92.32;100806.72;5045475;28;20053;-73
2021/03/27 09:28:04;;;;;;;3.22;1.90;;;;;;;5.86;92.88;100813.75;5024454;28;20529;-73
2021/03/27 09:30:41;;;;;;;4.13;1.95;;;;;;;5.84;92.81;100819.03;5025347;28;20046;-74
2021/03/27 09:33:48;;;;;;;3.55;2.10;;;;;;;5.69;93.19;100812.59;5010497;28;20131;-74
2021/03/27 09:36:55;;;;;;;3.77;2.40;;;;;;;5.93;93.23;100836.16;5040090;28;20599;-73
2021/03/27 09:39:29;;;;;;;2.22;1.58;;;;;;;6.11;92.48;100834.63;5004172;28;20049;-73
2021/03/27 09:42:16;;;;;;;3.88;2.15;;;;;;;6.31;92.08;100838.22;5027981;28;20049;-73
2021/03/27 09:45:01;;;;;;;2.53;1.60;;;;;;;6.31;91.83;100832.16;5039090;28;20475;-74
2021/03/27 09:47:52;;;;;;;2.50;1.67;;;;;;;6.63;91.39;100836.13;5027141;28;20048;-73
2021/03/27 09:50:35;;;;;;;2.25;1.58;;;;;;;6.37;91.21;100849.34;5041980;28;20045;-74
2021/03/27 09:53:10;;;;;;;5.50;2.28;;;;;;;6.68;91.05;100849.03;5007941;28;20045;-72
2021/03/27 09:55:52;;;;;;;6.18;1.55;;;;;;;7.26;89.45;100846.69;5019414;28;20076;-74
2021/03/27 09:58:32;;;;;;;2.00;1.60;;;;;;;7.22;89.46;100853.81;5032628;28;20384;-72
2021/03/27 10:01:15;;;;;;;2.28;1.65;;;;;;;6.63;90.50;100859.69;5025126;28;20091;-72
2021/03/27 10:04:09;;;;;;;4.00;1.63;;;;;;;6.90;90.25;100859.50;5011981;28;20054;-72
2021/03/27 10:06:38;;;;;;;12.02;1.77;;;;;;;6.82;90.05;100858.03;5048478;28;20167;-73
2021/03/27 10:09:19;;;;;;;2.55;1.83;;;;;;;6.75;89.90;100855.72;5046765;28;20057;-74
2021/03/27 10:11:50;;;;;;;19.58;3.03;;;;;;;6.85;89.83;100865.78;5021305;28;20045;-73
2021/03/27 10:14:20;;;;;;;4.90;2.42;;;;;;;6.88;89.88;100872.63;5003889;28;20056;-73
2021/03/27 10:16:55;;;;;;;3.40;2.13;;;;;;;7.04;88.48;100871.13;5038335;28;20140;-74
2021/03/27 10:19:28;;;;;;;6.95;2.80;;;;;;;7.04;87.18;100870.28;5021734;28;20041;-74
2021/03/27 10:22:17;;;;;;;2.83;2.20;;;;;;;7.04;86.36;100872.88;5015887;28;20075;-73
2021/03/27 10:25:16;;;;;;;6.50;2.37;;;;;;;7.26;87.60;100875.47;5003645;28;20047;-74
2021/03/27 10:27:56;;;;;;;4.03;2.28;;;;;;;7.23;85.70;100886.06;5018127;28;20103;-74
2021/03/27 10:30:29;;;;;;;3.45;2.40;;;;;;;7.64;84.11;100892.19;5003635;28;20060;-74
2021/03/27 10:33:15;;;;;;;6.88;3.40;;;;;;;7.41;84.49;100889.69;5020211;28;20055;-74
2021/03/27 10:35:45;;;;;;;5.18;2.88;;;;;;;7.47;84.79;100892.06;5003160;28;20041;-73
2021/03/27 10:38:53;;;;;;;3.92;2.65;;;;;;;7.47;84.76;100892.91;5037643;28;20132;-74
2021/03/27 10:41:39;;;;;;;4.28;2.67;;;;;;;8.00;83.26;100891.53;5044187;28;20048;-74
2021/03/27 10:44:18;;;;;;;7.07;3.33;;;;;;;8.75;80.63;100888.16;5023291;28;20555;-73
2021/03/27 10:46:50;;;;;;;4.80;3.03;;;;;;;8.71;80.14;100903.19;5011497;28;20056;-73
2021/03/27 10:49:27;;;;;;;4.95;3.28;;;;;;;9.40;79.36;100894.59;5019807;28;20133;-74
2021/03/27 10:52:06;;;;;;;4.90;3.28;;;;;;;10.13;74.52;100892.63;5016589;28;20064;-74
2021/03/27 10:54:54;;;;;;;4.63;2.85;;;;;;;10.72;71.75;100896.50;5014421;28;20061;-74
2021/03/27 10:57:39;;;;;;;12.55;3.38;;;;;;;10.17;71.74;100901.19;5010488;28;20037;-73
2021/03/27 11:00:36;;;;;;;10.60;3.03;;;;;;;7.08;84.51;100946.00;5035904;23;20467;-69
2021/03/27 11:03:36;;;;;;;5.45;3.00;;;;;;;5.90;89.66;100933.78;5014868;28;20049;-72
2021/03/27 11:06:25;;;;;;;6.45;2.83;;;;;;;5.72;92.01;100952.69;5029508;28;20103;-69
2021/03/27 11:09:35;;;;;;;3.65;2.65;;;;;;;6.22;91.55;100960.59;5035961;28;20067;-71
2021/03/27 11:12:43;;;;;;;9.00;2.97;;;;;;;7.02;89.45;100954.06;5041029;28;20052;-70
2021/03/27 11:15:19;;;;;;;5.50;3.42;;;;;;;7.46;87.62;100958.47;5021590;28;20056;-70
2021/03/27 11:18:05;;;;;;;5.70;2.75;;;;;;;7.14;87.46;100955.38;5006523;28;20137;-70
2021/03/27 11:20:44;;;;;;;8.43;2.92;;;;;;;7.16;84.21;100955.31;5005415;28;20041;-72
2021/03/27 11:23:32;;;;;;;14.13;2.97;;;;;;;7.46;85.98;100963.72;5020159;28;20045;-69
2021/03/27 11:26:10;;;;;;;11.43;3.05;;;;;;;7.53;86.09;100971.25;5033366;28;20052;-71
2021/03/27 11:28:55;;;;;;;8.52;2.95;;;;;;;7.54;86.03;100972.13;5032117;28;20255;-70
2021/03/27 11:31:45;;;;;;;11.63;2.97;;;;;;;7.40;84.02;100967.44;5016457;28;20065;-70
2021/03/27 11:34:37;;;;;;;10.02;3.55;;;;;;;7.55;85.00;100961.56;5005490;28;20211;-70
2021/03/27 11:37:27;;;;;;;41.47;5.55;;;;;;;7.53;84.66;100971.25;4996954;28;20037;-69
2021/03/27 11:40:01;;;;;;;8.65;3.00;;;;;;;7.78;81.52;100978.94;5009455;28;20080;-69
2021/03/27 11:42:34;;;;;;;6.93;2.90;;;;;;;7.77;81.66;100973.78;5017124;28;20053;-72
2021/03/27 11:45:06;;;;;;;6.43;3.10;;;;;;;7.83;80.32;100976.13;5032988;28;20501;-70
2021/03/27 11:48:19;;;;;;;8.77;3.13;;;;;;;7.75;79.53;100978.25;4997962;28;20268;-69
2021/03/27 11:51:04;;;;;;;4.78;2.83;;;;;;;8.10;79.58;100976.72;4956724;28;20315;-71
2021/03/27 11:53:36;;;;;;;6.55;3.50;;;;;;;8.31;77.17;100972.34;5000005;28;20038;-70
2021/03/27 11:56:15;;;;;;;11.50;3.65;;;;;;;8.44;75.51;100957.78;4999336;28;20566;-70
2021/03/27 12:02:14;;;;;;;9.02;3.45;;;;;;;9.19;72.02;100962.22;5028676;28;20109;-71
2021/03/27 12:04:53;;;;;;;10.40;3.08;;;;;;;9.51;69.70;100960.66;5012162;28;20268;-70
2021/03/27 12:07:44;;;;;;;4.50;2.60;;;;;;;9.60;67.79;100956.72;5031675;28;20046;-71
2021/03/27 12:10:38;;;;;;;6.85;2.97;;;;;;;9.82;65.22;100953.88;5016076;28;20038;-70
2021/03/27 12:13:08;;;;;;;10.75;3.17;;;;;;;9.83;64.14;100953.78;5038343;28;20045;-71
2021/03/27 12:15:38;;;;;;;8.15;3.20;;;;;;;9.93;62.58;100962.06;5022450;28;20132;-72
2021/03/27 12:18:53;;;;;;;11.68;5.35;;;;;;;9.63;57.77;100940.78;5040853;28;20049;-71
2021/03/27 12:21:28;;;;;;;6.95;3.33;;;;;;;9.83;59.42;100935.38;5042780;28;20072;-70
2021/03/27 12:24:04;;;;;;;11.07;3.28;;;;;;;9.52;57.10;100929.94;5024301;28;20137;-71
2021/03/27 12:26:58;;;;;;;14.80;3.53;;;;;;;9.22;57.17;100938.41;5024323;28;20058;-71
2021/03/27 12:29:40;;;;;;;12.45;4.65;;;;;;;9.46;56.78;100939.00;5028425;28;20080;-70
2021/03/27 12:32:27;;;;;;;13.13;3.85;;;;;;;9.64;58.17;100943.34;5015461;28;20051;-71
2021/03/27 12:35:00;;;;;;;12.85;3.97;;;;;;;9.75;57.52;100950.69;5019974;28;20149;-72
2021/03/27 12:37:36;;;;;;;8.60;4.45;;;;;;;10.10;56.16;100954.16;5014764;28;20106;-71
2021/03/27 12:40:20;;;;;;;5.35;3.08;;;;;;;10.13;55.35;100954.00;5009641;28;20113;-71
2021/03/27 12:42:49;;;;;;;4.63;3.00;;;;;;;10.11;55.06;100944.47;5039090;28;20372;-71
2021/03/27 12:45:29;;;;;;;6.68;3.15;;;;;;;10.30;54.17;100947.03;5020867;28;20562;-71
2021/03/27 12:48:02;;;;;;;15.75;3.40;;;;;;;10.05;54.13;100961.44;5028844;28;20062;-70
2021/03/27 12:51:08;;;;;;;15.38;4.32;;;;;;;10.24;54.09;100963.09;5003056;28;20050;-71